sensor_id;sensor_type;location;lat;lon;timestamp;pressure;altitude;pressure_sealevel;temperature;humidity
27712;BME280;2377;51.734;8.950;2022-11-20T11:04:52;97220.22;;;-3.13;100.00
27712;BME280;2377;51.734;8.950;2022-11-20T11:07:24;97221.41;;;-2.72;100.00
27712;BME280;2377;51.734;8.950;2022-11-20T11:09:55;97215.28;;;-2.34;100.00
27712;BME280;2377;51.734;8.950;2022-11-20T11:12:25;97213.78;;;-2.00;100.00
27712;BME280;2377;51.734;8.950;2022-11-20T11:14:55;97210.19;;;-1.72;100.00
27712;BME280;2377;51.734;8.950;2022-11-20T11:17:26;97201.69;;;-1.44;100.00
27712;BME280;2377;51.734;8.950;2022-11-20T11:20:00;97202.69;;;-1.21;100.00
27712;BME280;2377;51.734;8.950;2022-11-20T11:22:30;97206.84;;;-1.03;100.00
27712;BME280;2377;51.734;8.950;2022-11-20T11:24:58;97207.16;;;-0.90;100.00
27712;BME280;2377;51.734;8.950;2022-11-20T11:27:25;97203.41;;;-0.78;100.00
27712;BME280;2377;51.734;8.950;2022-11-20T11:30:20;97205.94;;;-0.70;100.00
27712;BME280;2377;51.734;8.950;2022-11-20T11:32:47;97204.81;;;-0.59;100.00
27712;BME280;2377;51.734;8.950;2022-11-20T11:35:28;97194.78;;;-0.51;100.00
27712;BME280;2377;51.734;8.950;2022-11-20T11:38:04;97190.72;;;-0.44;100.00
27712;BME280;2377;51.734;8.950;2022-11-20T11:40:35;97196.53;;;-0.35;100.00
27712;BME280;2377;51.734;8.950;2022-11-20T11:43:15;97196.50;;;-0.27;100.00
27712;BME280;2377;51.734;8.950;2022-11-20T11:46:23;97203.72;;;-0.15;100.00
27712;BME280;2377;51.734;8.950;2022-11-20T11:48:57;97200.38;;;-0.08;100.00
27712;BME280;2377;51.734;8.950;2022-11-20T11:51:32;97197.09;;;0.00;100.00
27712;BME280;2377;51.734;8.950;2022-11-20T11:54:10;97204.75;;;0.07;100.00
27712;BME280;2377;51.734;8.950;2022-11-20T11:56:41;97195.81;;;0.12;100.00
27712;BME280;2377;51.734;8.950;2022-11-20T11:59:16;97192.63;;;0.18;100.00
27712;BME280;2377;51.734;8.950;2022-11-20T12:01:55;97186.03;;;0.26;100.00
27712;BME280;2377;51.734;8.950;2022-11-20T12:04:42;97181.31;;;0.31;100.00
27712;BME280;2377;51.734;8.950;2022-11-20T12:07:19;97181.59;;;0.36;99.15
27712;BME280;2377;51.734;8.950;2022-11-20T12:09:53;97171.06;;;0.40;99.71
27712;BME280;2377;51.734;8.950;2022-11-20T12:12:25;97173.72;;;0.47;99.11
27712;BME280;2377;51.734;8.950;2022-11-20T12:14:56;97166.44;;;0.52;98.54
27712;BME280;2377;51.734;8.950;2022-11-20T12:17:24;97164.22;;;0.57;98.86
27712;BME280;2377;51.734;8.950;2022-11-20T12:19:51;97167.66;;;0.65;98.28
27712;BME280;2377;51.734;8.950;2022-11-20T12:22:31;97169.50;;;0.71;98.06
27712;BME280;2377;51.734;8.950;2022-11-20T12:25:10;97161.28;;;0.77;97.74
27712;BME280;2377;51.734;8.950;2022-11-20T12:28:22;97156.53;;;0.82;97.50
27712;BME280;2377;51.734;8.950;2022-11-20T12:31:14;97167.06;;;0.86;97.37
27712;BME280;2377;51.734;8.950;2022-11-20T12:34:07;97157.13;;;0.92;97.00
27712;BME280;2377;51.734;8.950;2022-11-20T12:36:44;97155.50;;;0.99;97.10
27712;BME280;2377;51.734;8.950;2022-11-20T12:39:33;97155.00;;;1.04;95.80
27712;BME280;2377;51.734;8.950;2022-11-20T12:42:37;97153.53;;;1.10;95.43
27712;BME280;2377;51.734;8.950;2022-11-20T12:46:02;97156.16;;;1.16;95.40
27712;BME280;2377;51.734;8.950;2022-11-20T12:49:08;97152.53;;;1.19;94.61
27712;BME280;2377;51.734;8.950;2022-11-20T12:52:03;97142.47;;;1.19;92.87
27712;BME280;2377;51.734;8.950;2022-11-20T12:55:00;97141.94;;;1.23;93.15
27712;BME280;2377;51.734;8.950;2022-11-20T12:57:38;97143.00;;;1.29;92.16
27712;BME280;2377;51.734;8.950;2022-11-20T13:00:14;97138.41;;;1.33;92.24
27712;BME280;2377;51.734;8.950;2022-11-20T13:03:06;97142.78;;;1.39;92.04
27712;BME280;2377;51.734;8.950;2022-11-20T13:05:50;97142.88;;;1.45;90.87
27712;BME280;2377;51.734;8.950;2022-11-20T13:08:23;97139.22;;;1.48;89.47
27712;BME280;2377;51.734;8.950;2022-11-20T13:10:59;97139.41;;;1.46;88.25
27712;BME280;2377;51.734;8.950;2022-11-20T13:13:42;97136.28;;;1.44;87.98
27712;BME280;2377;51.734;8.950;2022-11-20T13:16:19;97139.56;;;1.45;87.17
27712;BME280;2377;51.734;8.950;2022-11-20T13:18:48;97139.41;;;1.46;87.80
27712;BME280;2377;51.734;8.950;2022-11-20T13:21:17;97139.66;;;1.52;88.23
27712;BME280;2377;51.734;8.950;2022-11-20T13:23:45;97130.56;;;1.51;86.60
27712;BME280;2377;51.734;8.950;2022-11-20T13:26:20;97127.69;;;1.54;87.44
27712;BME280;2377;51.734;8.950;2022-11-20T13:29:03;97129.88;;;1.57;87.24
27712;BME280;2377;51.734;8.950;2022-11-20T13:31:34;97117.38;;;1.63;87.52
27712;BME280;2377;51.734;8.950;2022-11-20T13:34:05;97099.75;;;1.63;87.38
27712;BME280;2377;51.734;8.950;2022-11-20T13:36:33;97106.34;;;1.64;86.99
27712;BME280;2377;51.734;8.950;2022-11-20T13:39:02;97106.00;;;1.67;87.31
27712;BME280;2377;51.734;8.950;2022-11-20T13:41:34;97102.53;;;1.68;87.02
27712;BME280;2377;51.734;8.950;2022-11-20T13:44:15;97103.66;;;1.66;86.41
27712;BME280;2377;51.734;8.950;2022-11-20T13:46:50;97102.34;;;1.70;86.87
27712;BME280;2377;51.734;8.950;2022-11-20T13:49:23;97101.06;;;1.74;86.25
27712;BME280;2377;51.734;8.950;2022-11-20T13:52:04;97102.63;;;1.75;86.27
27712;BME280;2377;51.734;8.950;2022-11-20T13:55:07;97103.84;;;1.79;85.28
27712;BME280;2377;51.734;8.950;2022-11-20T13:58:07;97103.84;;;1.79;86.03
27712;BME280;2377;51.734;8.950;2022-11-20T14:00:47;97096.09;;;1.81;85.36
27712;BME280;2377;51.734;8.950;2022-11-20T14:03:20;97082.09;;;1.78;85.30
27712;BME280;2377;51.734;8.950;2022-11-20T14:05:54;97089.41;;;1.73;84.73
27712;BME280;2377;51.734;8.950;2022-11-20T14:08:32;97080.91;;;1.74;85.73
27712;BME280;2377;51.734;8.950;2022-11-20T14:11:11;97075.06;;;1.74;85.12
27712;BME280;2377;51.734;8.950;2022-11-20T14:13:56;97066.56;;;1.75;85.39
27712;BME280;2377;51.734;8.950;2022-11-20T14:16:25;97067.50;;;1.74;85.30
27712;BME280;2377;51.734;8.950;2022-11-20T14:18:53;97058.41;;;1.73;84.08
27712;BME280;2377;51.734;8.950;2022-11-20T14:21:26;97058.75;;;1.69;84.19
27712;BME280;2377;51.734;8.950;2022-11-20T14:24:02;97056.78;;;1.65;84.16
27712;BME280;2377;51.734;8.950;2022-11-20T14:26:30;97057.09;;;1.62;84.34
27712;BME280;2377;51.734;8.950;2022-11-20T14:28:59;97044.50;;;1.62;85.47
27712;BME280;2377;51.734;8.950;2022-11-20T14:31:28;97040.44;;;1.61;84.70
27712;BME280;2377;51.734;8.950;2022-11-20T14:33:56;97050.50;;;1.61;84.82
27712;BME280;2377;51.734;8.950;2022-11-20T14:36:25;97039.66;;;1.60;85.19
27712;BME280;2377;51.734;8.950;2022-11-20T14:38:53;97027.25;;;1.59;84.88
27712;BME280;2377;51.734;8.950;2022-11-20T14:41:22;97027.41;;;1.57;84.77
27712;BME280;2377;51.734;8.950;2022-11-20T14:43:54;97025.84;;;1.56;85.23
27712;BME280;2377;51.734;8.950;2022-11-20T14:46:24;97018.28;;;1.56;85.29
27712;BME280;2377;51.734;8.950;2022-11-20T14:48:56;97013.44;;;1.55;85.04
27712;BME280;2377;51.734;8.950;2022-11-20T14:51:31;97013.78;;;1.52;85.24
27712;BME280;2377;51.734;8.950;2022-11-20T14:54:10;97014.75;;;1.51;84.79
27712;BME280;2377;51.734;8.950;2022-11-20T14:56:37;97011.63;;;1.48;85.28
27712;BME280;2377;51.734;8.950;2022-11-20T14:59:05;97000.94;;;1.46;85.28
27712;BME280;2377;51.734;8.950;2022-11-20T15:01:34;97002.69;;;1.46;85.21
27712;BME280;2377;51.734;8.950;2022-11-20T15:04:09;97009.63;;;1.44;85.66
27712;BME280;2377;51.734;8.950;2022-11-20T15:06:37;97011.34;;;1.43;85.33
27712;BME280;2377;51.734;8.950;2022-11-20T15:09:13;97005.53;;;1.43;85.53
27712;BME280;2377;51.734;8.950;2022-11-20T15:11:54;97003.19;;;1.41;85.23
27712;BME280;2377;51.734;8.950;2022-11-20T15:14:23;97001.81;;;1.39;85.35
27712;BME280;2377;51.734;8.950;2022-11-20T15:16:53;97001.97;;;1.37;85.31
27712;BME280;2377;51.734;8.950;2022-11-20T15:19:23;97003.72;;;1.37;85.62
27712;BME280;2377;51.734;8.950;2022-11-20T15:21:50;96996.94;;;1.37;85.73
27712;BME280;2377;51.734;8.950;2022-11-20T15:24:27;96983.22;;;1.40;85.80
27712;BME280;2377;51.734;8.950;2022-11-20T15:26:54;96982.47;;;1.39;85.49
27712;BME280;2377;51.734;8.950;2022-11-20T15:29:23;96983.06;;;1.41;85.80
27712;BME280;2377;51.734;8.950;2022-11-20T15:31:52;96977.84;;;1.43;85.48
27712;BME280;2377;51.734;8.950;2022-11-20T15:34:19;96979.41;;;1.44;85.80
27712;BME280;2377;51.734;8.950;2022-11-20T15:36:46;96960.81;;;1.45;86.22
27712;BME280;2377;51.734;8.950;2022-11-20T15:39:13;96952.91;;;1.48;85.91
27712;BME280;2377;51.734;8.950;2022-11-20T15:41:41;96962.81;;;1.50;85.76
27712;BME280;2377;51.734;8.950;2022-11-20T15:44:08;96960.47;;;1.48;86.48
27712;BME280;2377;51.734;8.950;2022-11-20T15:46:38;96957.78;;;1.50;86.10
27712;BME280;2377;51.734;8.950;2022-11-20T15:49:13;96959.69;;;1.47;85.74
27712;BME280;2377;51.734;8.950;2022-11-20T15:51:43;96944.19;;;1.44;85.55
27712;BME280;2377;51.734;8.950;2022-11-20T15:54:14;96944.19;;;1.44;85.51
27712;BME280;2377;51.734;8.950;2022-11-20T15:56:43;96953.88;;;1.47;85.66
27712;BME280;2377;51.734;8.950;2022-11-20T15:59:10;96946.16;;;1.48;85.47
27712;BME280;2377;51.734;8.950;2022-11-20T16:01:38;96943.66;;;1.48;85.63
27712;BME280;2377;51.734;8.950;2022-11-20T16:04:11;96934.19;;;1.51;85.87
27712;BME280;2377;51.734;8.950;2022-11-20T16:06:38;96932.59;;;1.50;85.19
27712;BME280;2377;51.734;8.950;2022-11-20T16:09:06;96926.03;;;1.48;84.13
27712;BME280;2377;51.734;8.950;2022-11-20T16:11:34;96933.38;;;1.50;85.07
27712;BME280;2377;51.734;8.950;2022-11-20T16:14:02;96927.16;;;1.46;84.79
27712;BME280;2377;51.734;8.950;2022-11-20T16:16:47;96937.66;;;1.50;85.40
27712;BME280;2377;51.734;8.950;2022-11-20T16:19:16;96936.69;;;1.51;85.46
27712;BME280;2377;51.734;8.950;2022-11-20T16:21:44;96928.19;;;1.52;84.90
27712;BME280;2377;51.734;8.950;2022-11-20T16:24:13;96933.22;;;1.52;84.90
27712;BME280;2377;51.734;8.950;2022-11-20T16:26:41;96924.88;;;1.51;85.12
27712;BME280;2377;51.734;8.950;2022-11-20T16:29:08;96913.44;;;1.48;83.92
27712;BME280;2377;51.734;8.950;2022-11-20T16:31:36;96911.53;;;1.51;84.49
27712;BME280;2377;51.734;8.950;2022-11-20T16:34:05;96909.00;;;1.51;84.44
27712;BME280;2377;51.734;8.950;2022-11-20T16:36:34;96895.97;;;1.47;83.59
27712;BME280;2377;51.734;8.950;2022-11-20T16:39:02;96898.06;;;1.43;84.30
27712;BME280;2377;51.734;8.950;2022-11-20T16:41:32;96891.09;;;1.45;84.82
27712;BME280;2377;51.734;8.950;2022-11-20T16:44:02;96890.78;;;1.48;84.68
27712;BME280;2377;51.734;8.950;2022-11-20T16:46:32;96888.88;;;1.51;85.06
27712;BME280;2377;51.734;8.950;2022-11-20T16:49:02;96882.69;;;1.53;85.09
27712;BME280;2377;51.734;8.950;2022-11-20T16:51:31;96886.75;;;1.54;84.42
27712;BME280;2377;51.734;8.950;2022-11-20T16:54:03;96880.94;;;1.54;84.70
27712;BME280;2377;51.734;8.950;2022-11-20T16:56:31;96874.94;;;1.55;85.66
27712;BME280;2377;51.734;8.950;2022-11-20T16:58:59;96873.19;;;1.55;85.51
27712;BME280;2377;51.734;8.950;2022-11-20T17:01:28;96864.53;;;1.58;85.42
27712;BME280;2377;51.734;8.950;2022-11-20T17:03:57;96859.31;;;1.59;85.06
27712;BME280;2377;51.734;8.950;2022-11-20T17:06:27;96857.56;;;1.60;85.47
27712;BME280;2377;51.734;8.950;2022-11-20T17:08:56;96854.09;;;1.61;84.65
27712;BME280;2377;51.734;8.950;2022-11-20T17:11:26;96845.16;;;1.58;85.53
27712;BME280;2377;51.734;8.950;2022-11-20T17:13:54;96850.97;;;1.59;85.53
27712;BME280;2377;51.734;8.950;2022-11-20T17:16:23;96850.38;;;1.57;85.32
27712;BME280;2377;51.734;8.950;2022-11-20T17:18:53;96851.34;;;1.56;85.55
27712;BME280;2377;51.734;8.950;2022-11-20T17:21:20;96849.00;;;1.54;85.66
27712;BME280;2377;51.734;8.950;2022-11-20T17:23:48;96849.00;;;1.54;85.70
27712;BME280;2377;51.734;8.950;2022-11-20T17:26:21;96849.16;;;1.53;85.19
27712;BME280;2377;51.734;8.950;2022-11-20T17:28:55;96847.44;;;1.53;85.29
27712;BME280;2377;51.734;8.950;2022-11-20T17:31:22;96843.34;;;1.52;85.76
27712;BME280;2377;51.734;8.950;2022-11-20T17:33:51;96845.09;;;1.52;85.68
27712;BME280;2377;51.734;8.950;2022-11-20T17:36:19;96836.41;;;1.54;86.06
27712;BME280;2377;51.734;8.950;2022-11-20T17:38:46;96829.47;;;1.56;86.63
27712;BME280;2377;51.734;8.950;2022-11-20T17:41:17;96836.22;;;1.56;86.46
27712;BME280;2377;51.734;8.950;2022-11-20T17:43:44;96826.16;;;1.56;86.29
27712;BME280;2377;51.734;8.950;2022-11-20T17:46:15;96826.94;;;1.56;86.32
27712;BME280;2377;51.734;8.950;2022-11-20T17:48:44;96813.13;;;1.52;86.76
27712;BME280;2377;51.734;8.950;2022-11-20T17:51:14;96805.59;;;1.52;87.37
27712;BME280;2377;51.734;8.950;2022-11-20T17:53:46;96805.41;;;1.54;87.19
27712;BME280;2377;51.734;8.950;2022-11-20T17:56:14;96806.34;;;1.53;87.00
27712;BME280;2377;51.734;8.950;2022-11-20T17:59:02;96795.28;;;1.47;87.60
27712;BME280;2377;51.734;8.950;2022-11-20T18:01:31;96795.44;;;1.45;87.93
27712;BME280;2377;51.734;8.950;2022-11-20T18:03:58;96782.69;;;1.47;88.55
27712;BME280;2377;51.734;8.950;2022-11-20T18:06:27;96779.41;;;1.46;88.20
27712;BME280;2377;51.734;8.950;2022-11-20T18:08:56;96780.94;;;1.47;88.41
27712;BME280;2377;51.734;8.950;2022-11-20T18:11:26;96773.00;;;1.44;89.31
27712;BME280;2377;51.734;8.950;2022-11-20T18:14:02;96779.56;;;1.45;88.37
27712;BME280;2377;51.734;8.950;2022-11-20T18:16:51;96767.97;;;1.44;88.64
27712;BME280;2377;51.734;8.950;2022-11-20T18:19:21;96770.66;;;1.42;89.01
27712;BME280;2377;51.734;8.950;2022-11-20T18:21:52;96770.66;;;1.42;89.28
27712;BME280;2377;51.734;8.950;2022-11-20T18:24:19;96774.16;;;1.48;88.79
27712;BME280;2377;51.734;8.950;2022-11-20T18:26:46;96774.16;;;1.48;88.79
27712;BME280;2377;51.734;8.950;2022-11-20T18:29:14;96772.19;;;1.43;89.14
27712;BME280;2377;51.734;8.950;2022-11-20T18:31:52;96764.63;;;1.43;89.14
27712;BME280;2377;51.734;8.950;2022-11-20T18:34:20;96769.09;;;1.41;89.58
27712;BME280;2377;51.734;8.950;2022-11-20T18:36:47;96766.22;;;1.44;89.03
27712;BME280;2377;51.734;8.950;2022-11-20T18:39:14;96764.63;;;1.43;89.82
27712;BME280;2377;51.734;8.950;2022-11-20T18:41:42;96752.06;;;1.43;89.54
27712;BME280;2377;51.734;8.950;2022-11-20T18:44:29;96741.97;;;1.43;90.18
27712;BME280;2377;51.734;8.950;2022-11-20T18:47:18;96740.44;;;1.42;90.31
27712;BME280;2377;51.734;8.950;2022-11-20T18:49:47;96738.53;;;1.44;89.74
27712;BME280;2377;51.734;8.950;2022-11-20T18:52:19;96735.41;;;1.42;90.56
27712;BME280;2377;51.734;8.950;2022-11-20T18:54:46;96725.34;;;1.42;90.33
27712;BME280;2377;51.734;8.950;2022-11-20T18:57:15;96724.97;;;1.45;90.62
27712;BME280;2377;51.734;8.950;2022-11-20T18:59:43;96726.53;;;1.46;90.42
27712;BME280;2377;51.734;8.950;2022-11-20T19:02:12;96727.13;;;1.48;90.75
27712;BME280;2377;51.734;8.950;2022-11-20T19:04:41;96714.88;;;1.39;91.17
27712;BME280;2377;51.734;8.950;2022-11-20T19:07:10;96715.69;;;1.46;90.88
27712;BME280;2377;51.734;8.950;2022-11-20T19:09:37;96715.31;;;1.49;91.23
27712;BME280;2377;51.734;8.950;2022-11-20T19:12:06;96705.66;;;1.53;90.98
27712;BME280;2377;51.734;8.950;2022-11-20T19:14:34;96696.94;;;1.55;90.67
27712;BME280;2377;51.734;8.950;2022-11-20T19:17:05;96688.28;;;1.58;90.58
27712;BME280;2377;51.734;8.950;2022-11-20T19:19:32;96689.84;;;1.59;91.17
27712;BME280;2377;51.734;8.950;2022-11-20T19:22:01;96682.06;;;1.54;91.79
27712;BME280;2377;51.734;8.950;2022-11-20T19:24:29;96676.25;;;1.53;90.69
27712;BME280;2377;51.734;8.950;2022-11-20T19:26:56;96666.94;;;1.54;91.61
27712;BME280;2377;51.734;8.950;2022-11-20T19:29:25;96664.44;;;1.54;90.93
27712;BME280;2377;51.734;8.950;2022-11-20T19:31:53;96662.69;;;1.54;91.39
27712;BME280;2377;51.734;8.950;2022-11-20T19:34:20;96662.31;;;1.57;91.08
27712;BME280;2377;51.734;8.950;2022-11-20T19:36:48;96654.19;;;1.62;91.15
27712;BME280;2377;51.734;8.950;2022-11-20T19:39:16;96648.22;;;1.63;90.68
27712;BME280;2377;51.734;8.950;2022-11-20T19:41:43;96656.53;;;1.63;91.32
27712;BME280;2377;51.734;8.950;2022-11-20T19:44:13;96651.69;;;1.62;91.12
27712;BME280;2377;51.734;8.950;2022-11-20T19:46:40;96646.84;;;1.60;90.81
27712;BME280;2377;51.734;8.950;2022-11-20T19:49:12;96637.94;;;1.58;90.47
27712;BME280;2377;51.734;8.950;2022-11-20T19:51:50;96636.34;;;1.57;90.54
27712;BME280;2377;51.734;8.950;2022-11-20T19:54:18;96634.81;;;1.56;90.57
27712;BME280;2377;51.734;8.950;2022-11-20T19:56:46;96631.31;;;1.57;91.02
27712;BME280;2377;51.734;8.950;2022-11-20T19:59:14;96627.06;;;1.57;91.00
27712;BME280;2377;51.734;8.950;2022-11-20T20:01:41;96622.03;;;1.57;90.62
27712;BME280;2377;51.734;8.950;2022-11-20T20:04:08;96617.19;;;1.56;90.96
27712;BME280;2377;51.734;8.950;2022-11-20T20:06:36;96609.03;;;1.54;91.06
27712;BME280;2377;51.734;8.950;2022-11-20T20:09:07;96609.22;;;1.52;91.28
27712;BME280;2377;51.734;8.950;2022-11-20T20:11:36;96604.94;;;1.53;90.71
27712;BME280;2377;51.734;8.950;2022-11-20T20:14:25;96604.72;;;1.47;90.59
27712;BME280;2377;51.734;8.950;2022-11-20T20:16:56;96602.03;;;1.49;90.65
27712;BME280;2377;51.734;8.950;2022-11-20T20:19:23;96600.28;;;1.50;90.52
27712;BME280;2377;51.734;8.950;2022-11-20T20:21:50;96598.38;;;1.52;91.08
27712;BME280;2377;51.734;8.950;2022-11-20T20:24:18;96589.44;;;1.49;90.61
27712;BME280;2377;51.734;8.950;2022-11-20T20:26:46;96583.66;;;1.48;90.26
27712;BME280;2377;51.734;8.950;2022-11-20T20:29:13;96571.25;;;1.47;90.52
27712;BME280;2377;51.734;8.950;2022-11-20T20:31:40;96573.56;;;1.48;90.83
27712;BME280;2377;51.734;8.950;2022-11-20T20:34:07;96570.09;;;1.50;90.75
27712;BME280;2377;51.734;8.950;2022-11-20T20:36:37;96567.00;;;1.54;91.13
27712;BME280;2377;51.734;8.950;2022-11-20T20:39:04;96572.81;;;1.55;90.83
27712;BME280;2377;51.734;8.950;2022-11-20T20:41:31;96566.84;;;1.56;91.12
27712;BME280;2377;51.734;8.950;2022-11-20T20:44:00;96564.31;;;1.56;90.93
27712;BME280;2377;51.734;8.950;2022-11-20T20:46:45;96551.72;;;1.56;91.20
27712;BME280;2377;51.734;8.950;2022-11-20T20:49:12;96548.84;;;1.59;91.58
27712;BME280;2377;51.734;8.950;2022-11-20T20:51:39;96547.28;;;1.58;91.03
27712;BME280;2377;51.734;8.950;2022-11-20T20:54:06;96552.50;;;1.56;91.19
27712;BME280;2377;51.734;8.950;2022-11-20T20:56:33;96548.25;;;1.57;91.28
27712;BME280;2377;51.734;8.950;2022-11-20T20:59:02;96538.75;;;1.59;91.06
27712;BME280;2377;51.734;8.950;2022-11-20T21:01:29;96533.34;;;1.62;91.35
27712;BME280;2377;51.734;8.950;2022-11-20T21:03:56;96530.81;;;1.62;91.04
27712;BME280;2377;51.734;8.950;2022-11-20T21:06:24;96524.06;;;1.62;90.57
27712;BME280;2377;51.734;8.950;2022-11-20T21:08:51;96522.13;;;1.64;90.94
27712;BME280;2377;51.734;8.950;2022-11-20T21:11:20;96517.88;;;1.65;90.94
27712;BME280;2377;51.734;8.950;2022-11-20T21:13:48;96509.34;;;1.66;90.77
27712;BME280;2377;51.734;8.950;2022-11-20T21:16:18;96504.91;;;1.68;91.06
27712;BME280;2377;51.734;8.950;2022-11-20T21:18:47;96502.38;;;1.68;91.23
27712;BME280;2377;51.734;8.950;2022-11-20T21:21:15;96496.75;;;1.66;90.98
27712;BME280;2377;51.734;8.950;2022-11-20T21:24:01;96501.03;;;1.65;90.85
27712;BME280;2377;51.734;8.950;2022-11-20T21:26:28;96491.91;;;1.64;90.86
27712;BME280;2377;51.734;8.950;2022-11-20T21:28:56;96486.47;;;1.61;90.93
27712;BME280;2377;51.734;8.950;2022-11-20T21:31:25;96490.34;;;1.57;90.51
27712;BME280;2377;51.734;8.950;2022-11-20T21:33:55;96485.69;;;1.54;89.97
27712;BME280;2377;51.734;8.950;2022-11-20T21:36:24;96479.47;;;1.50;89.69
27712;BME280;2377;51.734;8.950;2022-11-20T21:38:53;96477.31;;;1.46;90.02
27712;BME280;2377;51.734;8.950;2022-11-20T21:41:21;96473.06;;;1.47;90.28
27712;BME280;2377;51.734;8.950;2022-11-20T21:43:50;96471.69;;;1.44;89.99
27712;BME280;2377;51.734;8.950;2022-11-20T21:46:17;96457.53;;;1.43;89.95
27712;BME280;2377;51.734;8.950;2022-11-20T21:48:46;96457.75;;;1.42;89.84
27712;BME280;2377;51.734;8.950;2022-11-20T21:51:16;96452.72;;;1.42;90.10
27712;BME280;2377;51.734;8.950;2022-11-20T21:53:44;96450.00;;;1.43;90.67
27712;BME280;2377;51.734;8.950;2022-11-20T21:56:13;96448.47;;;1.42;90.39
27712;BME280;2377;51.734;8.950;2022-11-20T21:58:42;96453.50;;;1.42;90.37
27712;BME280;2377;51.734;8.950;2022-11-20T22:01:13;96438.38;;;1.42;90.03
27712;BME280;2377;51.734;8.950;2022-11-20T22:03:41;96444.97;;;1.43;90.00
27712;BME280;2377;51.734;8.950;2022-11-20T22:06:10;96437.63;;;1.42;90.06
27712;BME280;2377;51.734;8.950;2022-11-20T22:08:37;96436.84;;;1.41;90.53
27712;BME280;2377;51.734;8.950;2022-11-20T22:11:07;96429.84;;;1.43;90.44
27712;BME280;2377;51.734;8.950;2022-11-20T22:13:35;96439.53;;;1.40;89.85
27712;BME280;2377;51.734;8.950;2022-11-20T22:16:20;96423.84;;;1.38;90.69
27712;BME280;2377;51.734;8.950;2022-11-20T22:18:49;96429.28;;;1.35;90.03
27712;BME280;2377;51.734;8.950;2022-11-20T22:21:21;96431.78;;;1.35;90.74
27712;BME280;2377;51.734;8.950;2022-11-20T22:23:49;96433.16;;;1.37;90.46
27712;BME280;2377;51.734;8.950;2022-11-20T22:26:18;96432.38;;;1.37;90.25
27712;BME280;2377;51.734;8.950;2022-11-20T22:28:47;96428.88;;;1.38;90.45
27712;BME280;2377;51.734;8.950;2022-11-20T22:31:15;96417.06;;;1.38;90.49
27712;BME280;2377;51.734;8.950;2022-11-20T22:33:42;96428.28;;;1.36;90.61
27712;BME280;2377;51.734;8.950;2022-11-20T22:36:13;96428.69;;;1.33;90.30
27712;BME280;2377;51.734;8.950;2022-11-20T22:38:42;96418.59;;;1.33;91.12
27712;BME280;2377;51.734;8.950;2022-11-20T22:41:11;96415.31;;;1.32;90.71
27712;BME280;2377;51.734;8.950;2022-11-20T22:43:39;96423.03;;;1.31;90.41
27712;BME280;2377;51.734;8.950;2022-11-20T22:46:09;96419.75;;;1.30;90.80
27712;BME280;2377;51.734;8.950;2022-11-20T22:48:39;96412.81;;;1.32;90.80
27712;BME280;2377;51.734;8.950;2022-11-20T22:51:08;96418.19;;;1.29;90.91
27712;BME280;2377;51.734;8.950;2022-11-20T22:53:36;96425.56;;;1.31;90.87
27712;BME280;2377;51.734;8.950;2022-11-20T22:56:05;96424.41;;;1.33;91.26
27712;BME280;2377;51.734;8.950;2022-11-20T22:58:34;96424.41;;;1.33;90.59
27712;BME280;2377;51.734;8.950;2022-11-20T23:01:09;96424.78;;;1.30;90.55
27712;BME280;2377;51.734;8.950;2022-11-20T23:03:37;96424.78;;;1.30;90.70
27712;BME280;2377;51.734;8.950;2022-11-20T23:06:05;96426.34;;;1.31;91.09
27712;BME280;2377;51.734;8.950;2022-11-20T23:08:34;96421.31;;;1.31;91.09
27712;BME280;2377;51.734;8.950;2022-11-20T23:11:06;96421.69;;;1.28;90.91
27712;BME280;2377;51.734;8.950;2022-11-20T23:13:35;96430.59;;;1.31;90.81
27712;BME280;2377;51.734;8.950;2022-11-20T23:16:15;96429.25;;;1.28;91.24
27712;BME280;2377;51.734;8.950;2022-11-20T23:18:43;96421.69;;;1.28;90.82
27712;BME280;2377;51.734;8.950;2022-11-20T23:21:13;96428.25;;;1.29;91.26
27712;BME280;2377;51.734;8.950;2022-11-20T23:23:42;96432.53;;;1.29;91.15
27712;BME280;2377;51.734;8.950;2022-11-20T23:26:13;96429.06;;;1.30;91.18
27712;BME280;2377;51.734;8.950;2022-11-20T23:28:41;96431.75;;;1.28;91.11
27712;BME280;2377;51.734;8.950;2022-11-20T23:31:10;96431.75;;;1.28;91.40
27712;BME280;2377;51.734;8.950;2022-11-20T23:33:41;96436.19;;;1.26;92.05
27712;BME280;2377;51.734;8.950;2022-11-20T23:36:10;96432.72;;;1.27;91.72
27712;BME280;2377;51.734;8.950;2022-11-20T23:38:37;96435.25;;;1.27;91.92
27712;BME280;2377;51.734;8.950;2022-11-20T23:41:05;96436.97;;;1.26;92.02
27712;BME280;2377;51.734;8.950;2022-11-20T23:43:34;96435.81;;;1.29;91.86
27712;BME280;2377;51.734;8.950;2022-11-20T23:46:02;96433.69;;;1.26;92.34
27712;BME280;2377;51.734;8.950;2022-11-20T23:48:33;96437.56;;;1.29;92.48
27712;BME280;2377;51.734;8.950;2022-11-20T23:51:02;96445.09;;;1.29;92.66
27712;BME280;2377;51.734;8.950;2022-11-20T23:53:29;96446.09;;;1.27;92.44
27712;BME280;2377;51.734;8.950;2022-11-20T23:55:58;96451.13;;;1.27;92.09
27712;BME280;2377;51.734;8.950;2022-11-20T23:58:31;96456.50;;;1.24;92.37
